sensor_id;sensor_type;location;lat;lon;timestamp;temperature;humidity
21648;DHT22;10985;54.182;7.890;2022-10-31T00:02:21;15.20;99.90
21648;DHT22;10985;54.182;7.890;2022-10-31T00:04:47;15.20;99.90
21648;DHT22;10985;54.182;7.890;2022-10-31T00:07:12;15.10;99.90
21648;DHT22;10985;54.182;7.890;2022-10-31T00:09:38;15.10;99.90
21648;DHT22;10985;54.182;7.890;2022-10-31T00:12:03;15.10;99.90
21648;DHT22;10985;54.182;7.890;2022-10-31T00:14:29;15.10;99.90
21648;DHT22;10985;54.182;7.890;2022-10-31T00:16:54;15.00;99.90
21648;DHT22;10985;54.182;7.890;2022-10-31T00:19:20;15.10;99.90
21648;DHT22;10985;54.182;7.890;2022-10-31T00:21:45;15.00;99.90
21648;DHT22;10985;54.182;7.890;2022-10-31T00:24:11;15.00;99.90
21648;DHT22;10985;54.182;7.890;2022-10-31T00:26:36;15.00;99.90
21648;DHT22;10985;54.182;7.890;2022-10-31T00:29:02;15.00;99.90
21648;DHT22;10985;54.182;7.890;2022-10-31T00:31:28;14.90;99.90
21648;DHT22;10985;54.182;7.890;2022-10-31T00:33:54;14.90;99.90
21648;DHT22;10985;54.182;7.890;2022-10-31T00:36:20;14.90;99.90
21648;DHT22;10985;54.182;7.890;2022-10-31T00:38:47;14.90;99.90
21648;DHT22;10985;54.182;7.890;2022-10-31T00:41:14;14.80;99.90
21648;DHT22;10985;54.182;7.890;2022-10-31T00:43:40;14.80;99.90
21648;DHT22;10985;54.182;7.890;2022-10-31T00:46:06;14.80;99.90
21648;DHT22;10985;54.182;7.890;2022-10-31T00:48:31;14.80;99.90
21648;DHT22;10985;54.182;7.890;2022-10-31T00:50:57;14.80;99.90
21648;DHT22;10985;54.182;7.890;2022-10-31T00:53:22;14.70;99.90
21648;DHT22;10985;54.182;7.890;2022-10-31T00:55:48;14.70;99.90
21648;DHT22;10985;54.182;7.890;2022-10-31T00:58:13;14.70;99.90
21648;DHT22;10985;54.182;7.890;2022-10-31T01:00:39;14.70;99.90
21648;DHT22;10985;54.182;7.890;2022-10-31T01:03:05;14.60;99.90
21648;DHT22;10985;54.182;7.890;2022-10-31T01:05:30;14.60;99.90
21648;DHT22;10985;54.182;7.890;2022-10-31T01:07:56;14.60;99.90
21648;DHT22;10985;54.182;7.890;2022-10-31T01:10:21;14.60;99.90
21648;DHT22;10985;54.182;7.890;2022-10-31T01:12:48;14.60;99.90
21648;DHT22;10985;54.182;7.890;2022-10-31T01:15:17;14.60;99.90
21648;DHT22;10985;54.182;7.890;2022-10-31T01:17:43;14.60;99.90
21648;DHT22;10985;54.182;7.890;2022-10-31T01:20:10;14.60;99.90
21648;DHT22;10985;54.182;7.890;2022-10-31T01:22:36;14.60;99.90
21648;DHT22;10985;54.182;7.890;2022-10-31T01:25:02;14.60;99.90
21648;DHT22;10985;54.182;7.890;2022-10-31T01:27:28;14.60;99.90
21648;DHT22;10985;54.182;7.890;2022-10-31T01:29:53;14.50;99.90
21648;DHT22;10985;54.182;7.890;2022-10-31T01:32:19;14.50;99.90
21648;DHT22;10985;54.182;7.890;2022-10-31T01:34:44;14.50;99.90
21648;DHT22;10985;54.182;7.890;2022-10-31T01:37:10;14.50;99.90
21648;DHT22;10985;54.182;7.890;2022-10-31T01:39:35;14.50;99.90
21648;DHT22;10985;54.182;7.890;2022-10-31T01:42:01;14.50;99.90
21648;DHT22;10985;54.182;7.890;2022-10-31T01:47:08;14.50;99.90
21648;DHT22;10985;54.182;7.890;2022-10-31T01:49:38;14.40;99.90
21648;DHT22;10985;54.182;7.890;2022-10-31T01:52:16;14.40;99.90
21648;DHT22;10985;54.182;7.890;2022-10-31T01:54:51;14.40;99.90
21648;DHT22;10985;54.182;7.890;2022-10-31T01:57:20;14.40;99.90
21648;DHT22;10985;54.182;7.890;2022-10-31T01:59:49;14.30;99.90
21648;DHT22;10985;54.182;7.890;2022-10-31T02:02:18;14.30;99.90
21648;DHT22;10985;54.182;7.890;2022-10-31T02:04:45;14.30;99.90
21648;DHT22;10985;54.182;7.890;2022-10-31T02:07:18;14.30;99.90
21648;DHT22;10985;54.182;7.890;2022-10-31T02:09:46;14.30;99.90
21648;DHT22;10985;54.182;7.890;2022-10-31T02:12:13;14.30;99.90
21648;DHT22;10985;54.182;7.890;2022-10-31T02:14:39;14.30;99.90
21648;DHT22;10985;54.182;7.890;2022-10-31T02:17:05;14.30;99.90
21648;DHT22;10985;54.182;7.890;2022-10-31T02:20:13;14.30;99.90
21648;DHT22;10985;54.182;7.890;2022-10-31T02:25:19;14.20;99.90
21648;DHT22;10985;54.182;7.890;2022-10-31T02:36:57;14.20;99.90
21648;DHT22;10985;54.182;7.890;2022-10-31T02:39:27;14.20;99.90
21648;DHT22;10985;54.182;7.890;2022-10-31T02:42:07;14.20;99.90
21648;DHT22;10985;54.182;7.890;2022-10-31T02:44:47;14.20;99.90
21648;DHT22;10985;54.182;7.890;2022-10-31T02:47:19;14.20;99.90
21648;DHT22;10985;54.182;7.890;2022-10-31T10:30:21;15.30;99.90
21648;DHT22;10985;54.182;7.890;2022-10-31T10:32:53;15.40;99.90
21648;DHT22;10985;54.182;7.890;2022-10-31T10:35:30;15.40;99.90
21648;DHT22;10985;54.182;7.890;2022-10-31T10:40:52;15.40;99.90
21648;DHT22;10985;54.182;7.890;2022-10-31T10:46:05;15.50;99.90
21648;DHT22;10985;54.182;7.890;2022-10-31T10:51:58;15.50;99.90
21648;DHT22;10985;54.182;7.890;2022-10-31T10:57:01;15.50;99.90
21648;DHT22;10985;54.182;7.890;2022-10-31T10:59:27;15.50;99.90
21648;DHT22;10985;54.182;7.890;2022-10-31T11:01:54;15.60;99.90
21648;DHT22;10985;54.182;7.890;2022-10-31T11:04:34;15.60;99.90
21648;DHT22;10985;54.182;7.890;2022-10-31T11:07:05;15.70;99.90
21648;DHT22;10985;54.182;7.890;2022-10-31T11:09:32;15.80;99.90
21648;DHT22;10985;54.182;7.890;2022-10-31T11:12:00;16.00;99.90
21648;DHT22;10985;54.182;7.890;2022-10-31T11:14:30;16.10;99.90
21648;DHT22;10985;54.182;7.890;2022-10-31T11:17:09;16.30;99.90
21648;DHT22;10985;54.182;7.890;2022-10-31T11:19:35;16.50;99.90
21648;DHT22;10985;54.182;7.890;2022-10-31T11:22:12;16.70;99.90
21648;DHT22;10985;54.182;7.890;2022-10-31T11:24:41;16.90;99.90
21648;DHT22;10985;54.182;7.890;2022-10-31T11:29:38;17.30;99.90
21648;DHT22;10985;54.182;7.890;2022-10-31T11:32:04;17.50;99.90
21648;DHT22;10985;54.182;7.890;2022-10-31T11:34:36;17.80;99.90
21648;DHT22;10985;54.182;7.890;2022-10-31T11:37:18;18.20;99.90
21648;DHT22;10985;54.182;7.890;2022-10-31T11:39:47;18.30;99.90
21648;DHT22;10985;54.182;7.890;2022-10-31T11:42:22;18.50;99.90
21648;DHT22;10985;54.182;7.890;2022-10-31T11:44:50;18.60;99.90
21648;DHT22;10985;54.182;7.890;2022-10-31T11:47:17;18.70;99.90
21648;DHT22;10985;54.182;7.890;2022-10-31T11:49:47;18.80;99.90
21648;DHT22;10985;54.182;7.890;2022-10-31T11:52:20;18.90;99.90
21648;DHT22;10985;54.182;7.890;2022-10-31T11:54:55;19.00;99.90
21648;DHT22;10985;54.182;7.890;2022-10-31T11:57:41;19.30;99.90
21648;DHT22;10985;54.182;7.890;2022-10-31T12:00:23;19.70;99.90
21648;DHT22;10985;54.182;7.890;2022-10-31T12:02:49;20.00;99.90
21648;DHT22;10985;54.182;7.890;2022-10-31T12:05:23;20.20;99.90
21648;DHT22;10985;54.182;7.890;2022-10-31T12:07:50;20.30;99.90
21648;DHT22;10985;54.182;7.890;2022-10-31T12:10:19;20.50;99.90
21648;DHT22;10985;54.182;7.890;2022-10-31T12:13:14;20.70;99.90
21648;DHT22;10985;54.182;7.890;2022-10-31T12:15:52;20.80;99.90
21648;DHT22;10985;54.182;7.890;2022-10-31T12:20:58;21.00;99.90
21648;DHT22;10985;54.182;7.890;2022-10-31T12:26:19;21.00;99.90
21648;DHT22;10985;54.182;7.890;2022-10-31T12:28:55;20.90;99.90
21648;DHT22;10985;54.182;7.890;2022-10-31T12:34:45;20.80;99.90
21648;DHT22;10985;54.182;7.890;2022-10-31T12:40:09;20.50;99.90
21648;DHT22;10985;54.182;7.890;2022-10-31T12:43:29;20.50;99.90
21648;DHT22;10985;54.182;7.890;2022-10-31T12:45:59;20.50;99.90
21648;DHT22;10985;54.182;7.890;2022-10-31T12:54:02;20.10;99.90
21648;DHT22;10985;54.182;7.890;2022-10-31T12:56:57;19.80;99.90
21648;DHT22;10985;54.182;7.890;2022-10-31T12:59:38;19.60;99.90
21648;DHT22;10985;54.182;7.890;2022-10-31T13:02:29;19.30;99.90
21648;DHT22;10985;54.182;7.890;2022-10-31T13:05:16;19.10;99.90
21648;DHT22;10985;54.182;7.890;2022-10-31T13:07:58;18.90;99.90
21648;DHT22;10985;54.182;7.890;2022-10-31T13:10:39;18.60;99.90
21648;DHT22;10985;54.182;7.890;2022-10-31T13:13:26;18.40;99.90
21648;DHT22;10985;54.182;7.890;2022-10-31T13:16:15;18.30;99.90
21648;DHT22;10985;54.182;7.890;2022-10-31T13:18:49;18.20;99.90
21648;DHT22;10985;54.182;7.890;2022-10-31T13:21:44;18.00;99.90
21648;DHT22;10985;54.182;7.890;2022-10-31T13:24:18;17.90;99.90
21648;DHT22;10985;54.182;7.890;2022-10-31T13:26:47;17.70;99.90
21648;DHT22;10985;54.182;7.890;2022-10-31T13:29:26;17.60;99.90
21648;DHT22;10985;54.182;7.890;2022-10-31T13:31:53;17.50;99.90
21648;DHT22;10985;54.182;7.890;2022-10-31T13:34:25;17.30;99.90
21648;DHT22;10985;54.182;7.890;2022-10-31T13:36:57;17.20;99.90
21648;DHT22;10985;54.182;7.890;2022-10-31T13:39:46;17.10;99.90
21648;DHT22;10985;54.182;7.890;2022-10-31T13:45:24;16.90;99.90
21648;DHT22;10985;54.182;7.890;2022-10-31T13:48:46;16.70;99.90
21648;DHT22;10985;54.182;7.890;2022-10-31T13:51:00;16.60;99.90
21648;DHT22;10985;54.182;7.890;2022-10-31T13:56:14;16.40;99.90
21648;DHT22;10985;54.182;7.890;2022-10-31T13:58:54;16.40;99.90
21648;DHT22;10985;54.182;7.890;2022-10-31T14:01:22;16.30;99.90
21648;DHT22;10985;54.182;7.890;2022-10-31T14:04:01;16.20;99.90
21648;DHT22;10985;54.182;7.890;2022-10-31T14:09:04;16.10;99.90
21648;DHT22;10985;54.182;7.890;2022-10-31T14:11:30;16.10;99.90
21648;DHT22;10985;54.182;7.890;2022-10-31T14:13:57;16.00;99.90
21648;DHT22;10985;54.182;7.890;2022-10-31T14:16:27;15.90;99.90
21648;DHT22;10985;54.182;7.890;2022-10-31T14:19:07;15.90;99.90
21648;DHT22;10985;54.182;7.890;2022-10-31T14:21:49;15.90;99.90
21648;DHT22;10985;54.182;7.890;2022-10-31T14:24:32;15.80;99.90
21648;DHT22;10985;54.182;7.890;2022-10-31T14:29:33;15.70;99.90
21648;DHT22;10985;54.182;7.890;2022-10-31T14:32:21;15.60;99.90
21648;DHT22;10985;54.182;7.890;2022-10-31T14:34:52;15.60;99.90
21648;DHT22;10985;54.182;7.890;2022-10-31T14:38:02;15.50;99.90
21648;DHT22;10985;54.182;7.890;2022-10-31T14:43:30;15.40;99.90
21648;DHT22;10985;54.182;7.890;2022-10-31T14:51:34;15.40;99.90
21648;DHT22;10985;54.182;7.890;2022-10-31T14:54:01;15.30;99.90
21648;DHT22;10985;54.182;7.890;2022-10-31T14:56:30;15.40;99.90
21648;DHT22;10985;54.182;7.890;2022-10-31T14:59:00;15.30;99.90
21648;DHT22;10985;54.182;7.890;2022-10-31T15:01:35;15.30;99.90
21648;DHT22;10985;54.182;7.890;2022-10-31T15:04:16;15.30;99.90
21648;DHT22;10985;54.182;7.890;2022-10-31T15:06:53;15.30;99.90
21648;DHT22;10985;54.182;7.890;2022-10-31T15:09:29;15.30;99.90
21648;DHT22;10985;54.182;7.890;2022-10-31T15:11:57;15.30;99.90
21648;DHT22;10985;54.182;7.890;2022-10-31T15:14:29;15.20;99.90
21648;DHT22;10985;54.182;7.890;2022-10-31T15:16:57;15.20;99.90
21648;DHT22;10985;54.182;7.890;2022-10-31T15:19:26;15.20;99.90
21648;DHT22;10985;54.182;7.890;2022-10-31T15:21:53;15.20;99.90
21648;DHT22;10985;54.182;7.890;2022-10-31T15:24:20;15.10;99.90
21648;DHT22;10985;54.182;7.890;2022-10-31T15:26:49;15.10;99.90
21648;DHT22;10985;54.182;7.890;2022-10-31T15:29:27;15.10;99.90
21648;DHT22;10985;54.182;7.890;2022-10-31T15:32:00;15.10;99.90
21648;DHT22;10985;54.182;7.890;2022-10-31T15:37:02;15.00;99.90
21648;DHT22;10985;54.182;7.890;2022-10-31T15:39:27;15.00;99.90
21648;DHT22;10985;54.182;7.890;2022-10-31T15:41:57;15.00;99.90
21648;DHT22;10985;54.182;7.890;2022-10-31T15:44:29;14.90;99.90
21648;DHT22;10985;54.182;7.890;2022-10-31T15:47:02;14.90;99.90
21648;DHT22;10985;54.182;7.890;2022-10-31T15:49:35;14.90;99.90
21648;DHT22;10985;54.182;7.890;2022-10-31T15:52:09;14.80;99.90
21648;DHT22;10985;54.182;7.890;2022-10-31T15:54:48;14.80;99.90
21648;DHT22;10985;54.182;7.890;2022-10-31T15:57:14;14.80;99.90
21648;DHT22;10985;54.182;7.890;2022-10-31T15:59:42;14.80;99.90
21648;DHT22;10985;54.182;7.890;2022-10-31T16:02:11;14.80;99.90
21648;DHT22;10985;54.182;7.890;2022-10-31T16:04:37;14.80;99.90
21648;DHT22;10985;54.182;7.890;2022-10-31T16:07:14;14.80;99.90
21648;DHT22;10985;54.182;7.890;2022-10-31T16:10:00;14.70;99.90
21648;DHT22;10985;54.182;7.890;2022-10-31T16:12:41;14.70;99.90
21648;DHT22;10985;54.182;7.890;2022-10-31T16:15:14;14.70;99.90
21648;DHT22;10985;54.182;7.890;2022-10-31T16:17:43;14.70;99.90
21648;DHT22;10985;54.182;7.890;2022-10-31T16:20:22;14.60;99.90
21648;DHT22;10985;54.182;7.890;2022-10-31T16:22:51;14.60;99.90
21648;DHT22;10985;54.182;7.890;2022-10-31T16:25:27;14.60;99.90
21648;DHT22;10985;54.182;7.890;2022-10-31T16:27:57;14.60;99.90
21648;DHT22;10985;54.182;7.890;2022-10-31T16:30:38;14.50;99.90
21648;DHT22;10985;54.182;7.890;2022-10-31T16:33:27;14.50;99.90
21648;DHT22;10985;54.182;7.890;2022-10-31T16:35:52;14.50;99.90
21648;DHT22;10985;54.182;7.890;2022-10-31T16:38:17;14.50;99.90
21648;DHT22;10985;54.182;7.890;2022-10-31T16:40:43;14.40;99.90
21648;DHT22;10985;54.182;7.890;2022-10-31T16:43:14;14.40;99.90
21648;DHT22;10985;54.182;7.890;2022-10-31T16:45:44;14.40;99.90
21648;DHT22;10985;54.182;7.890;2022-10-31T16:48:12;14.40;99.90
21648;DHT22;10985;54.182;7.890;2022-10-31T16:50:40;14.40;99.90
21648;DHT22;10985;54.182;7.890;2022-10-31T16:53:06;14.30;99.90
21648;DHT22;10985;54.182;7.890;2022-10-31T16:55:32;14.40;99.90
21648;DHT22;10985;54.182;7.890;2022-10-31T16:58:00;14.40;99.90
21648;DHT22;10985;54.182;7.890;2022-10-31T17:00:27;14.40;99.90
21648;DHT22;10985;54.182;7.890;2022-10-31T17:02:55;14.30;99.90
21648;DHT22;10985;54.182;7.890;2022-10-31T17:05:25;14.40;99.90
21648;DHT22;10985;54.182;7.890;2022-10-31T17:07:58;14.30;99.90
21648;DHT22;10985;54.182;7.890;2022-10-31T17:10:25;14.30;99.90
21648;DHT22;10985;54.182;7.890;2022-10-31T17:12:50;14.30;99.90
21648;DHT22;10985;54.182;7.890;2022-10-31T17:15:24;14.30;99.90
21648;DHT22;10985;54.182;7.890;2022-10-31T17:17:51;14.30;99.90
21648;DHT22;10985;54.182;7.890;2022-10-31T17:20:30;14.30;99.90
21648;DHT22;10985;54.182;7.890;2022-10-31T17:22:57;14.30;99.90
21648;DHT22;10985;54.182;7.890;2022-10-31T17:25:28;14.30;99.90
21648;DHT22;10985;54.182;7.890;2022-10-31T17:27:53;14.30;99.90
21648;DHT22;10985;54.182;7.890;2022-10-31T17:30:20;14.30;99.90
21648;DHT22;10985;54.182;7.890;2022-10-31T17:32:46;14.30;99.90
21648;DHT22;10985;54.182;7.890;2022-10-31T17:35:13;14.30;99.90
21648;DHT22;10985;54.182;7.890;2022-10-31T17:37:40;14.20;99.90
21648;DHT22;10985;54.182;7.890;2022-10-31T17:40:08;14.20;99.90
21648;DHT22;10985;54.182;7.890;2022-10-31T17:42:34;14.20;99.90
21648;DHT22;10985;54.182;7.890;2022-10-31T17:44:59;14.20;99.90
21648;DHT22;10985;54.182;7.890;2022-10-31T17:47:25;14.20;99.90
21648;DHT22;10985;54.182;7.890;2022-10-31T17:49:50;14.20;99.90
21648;DHT22;10985;54.182;7.890;2022-10-31T17:52:18;14.20;99.90
21648;DHT22;10985;54.182;7.890;2022-10-31T17:54:43;14.20;99.90
21648;DHT22;10985;54.182;7.890;2022-10-31T17:57:09;14.20;99.90
21648;DHT22;10985;54.182;7.890;2022-10-31T17:59:34;14.10;99.90
21648;DHT22;10985;54.182;7.890;2022-10-31T18:02:00;14.10;99.90
21648;DHT22;10985;54.182;7.890;2022-10-31T18:04:27;14.10;99.90
21648;DHT22;10985;54.182;7.890;2022-10-31T18:06:53;14.10;99.90
21648;DHT22;10985;54.182;7.890;2022-10-31T18:09:18;14.10;99.90
21648;DHT22;10985;54.182;7.890;2022-10-31T18:11:44;14.10;99.90
21648;DHT22;10985;54.182;7.890;2022-10-31T18:14:09;14.10;99.90
21648;DHT22;10985;54.182;7.890;2022-10-31T18:16:35;14.10;99.90
21648;DHT22;10985;54.182;7.890;2022-10-31T18:19:01;14.10;99.90
21648;DHT22;10985;54.182;7.890;2022-10-31T18:21:27;14.00;99.90
21648;DHT22;10985;54.182;7.890;2022-10-31T18:23:54;14.00;99.90
21648;DHT22;10985;54.182;7.890;2022-10-31T18:26:21;14.00;99.90
